sensor_id;sensor_type;location;lat;lon;timestamp;pressure;altitude;pressure_sealevel;temperature;humidity
14902;BME280;7542;49.078;9.194;2024-02-23T00:00:27;96571.09;;;28.06;31.79
14902;BME280;7542;49.078;9.194;2024-02-23T00:01:29;96561.09;;;28.07;31.93
14902;BME280;7542;49.078;9.194;2024-02-23T00:02:32;96571.88;;;28.07;31.96
14902;BME280;7542;49.078;9.194;2024-02-23T00:03:35;96569.97;;;28.07;31.91
14902;BME280;7542;49.078;9.194;2024-02-23T00:04:38;96570.31;;;28.06;31.96
14902;BME280;7542;49.078;9.194;2024-02-23T00:05:41;96569.50;;;28.05;31.70
14902;BME280;7542;49.078;9.194;2024-02-23T00:06:43;96575.69;;;28.06;31.68
14902;BME280;7542;49.078;9.194;2024-02-23T00:07:46;96584.91;;;28.05;31.75
14902;BME280;7542;49.078;9.194;2024-02-23T00:08:48;96575.69;;;28.06;31.83
14902;BME280;7542;49.078;9.194;2024-02-23T00:09:51;96579.16;;;28.06;31.69
14902;BME280;7542;49.078;9.194;2024-02-23T00:10:53;96583.78;;;28.06;31.78
14902;BME280;7542;49.078;9.194;2024-02-23T00:11:56;96582.19;;;28.05;31.92
14902;BME280;7542;49.078;9.194;2024-02-23T00:12:58;96583.78;;;28.06;31.96
14902;BME280;7542;49.078;9.194;2024-02-23T00:14:00;96584.09;;;28.04;31.93
14902;BME280;7542;49.078;9.194;2024-02-23T00:15:03;96596.78;;;28.04;32.01
14902;BME280;7542;49.078;9.194;2024-02-23T00:16:07;96597.59;;;28.04;32.02
14902;BME280;7542;49.078;9.194;2024-02-23T00:17:11;96599.16;;;28.05;31.97
14902;BME280;7542;49.078;9.194;2024-02-23T00:18:14;96598.38;;;28.05;31.73
14902;BME280;7542;49.078;9.194;2024-02-23T00:19:18;96596.47;;;28.05;31.93
14902;BME280;7542;49.078;9.194;2024-02-23T00:20:22;96605.31;;;28.06;31.75
14902;BME280;7542;49.078;9.194;2024-02-23T00:21:25;96602.63;;;28.06;31.76
14902;BME280;7542;49.078;9.194;2024-02-23T00:22:27;96590.28;;;28.05;31.67
14902;BME280;7542;49.078;9.194;2024-02-23T00:23:30;96592.19;;;28.04;31.87
14902;BME280;7542;49.078;9.194;2024-02-23T00:24:32;96592.97;;;28.05;31.71
14902;BME280;7542;49.078;9.194;2024-02-23T00:25:35;96598.38;;;28.05;31.74
14902;BME280;7542;49.078;9.194;2024-02-23T00:26:37;96589.16;;;28.06;31.78
14902;BME280;7542;49.078;9.194;2024-02-23T00:27:42;96588.72;;;28.04;31.88
14902;BME280;7542;49.078;9.194;2024-02-23T00:28:46;96597.25;;;28.06;31.72
14902;BME280;7542;49.078;9.194;2024-02-23T00:29:48;96594.56;;;28.06;31.64
14902;BME280;7542;49.078;9.194;2024-02-23T00:30:51;96591.41;;;28.04;31.64
14902;BME280;7542;49.078;9.194;2024-02-23T00:31:53;96593.75;;;28.05;31.73
14902;BME280;7542;49.078;9.194;2024-02-23T00:32:55;96590.28;;;28.05;31.91
14902;BME280;7542;49.078;9.194;2024-02-23T00:33:58;96583.31;;;28.04;31.88
14902;BME280;7542;49.078;9.194;2024-02-23T00:35:03;96592.97;;;28.05;32.05
14902;BME280;7542;49.078;9.194;2024-02-23T00:36:06;96587.59;;;28.05;31.84
14902;BME280;7542;49.078;9.194;2024-02-23T00:37:08;96590.28;;;28.05;31.84
14902;BME280;7542;49.078;9.194;2024-02-23T00:38:11;96597.59;;;28.04;31.69
14902;BME280;7542;49.078;9.194;2024-02-23T00:39:13;96604.88;;;28.04;31.95
14902;BME280;7542;49.078;9.194;2024-02-23T00:40:16;96602.19;;;28.04;31.94
14902;BME280;7542;49.078;9.194;2024-02-23T00:41:19;96608.69;;;28.02;31.74
14902;BME280;7542;49.078;9.194;2024-02-23T00:42:21;96614.53;;;28.05;31.88
14902;BME280;7542;49.078;9.194;2024-02-23T00:43:24;96611.84;;;28.05;31.85
14902;BME280;7542;49.078;9.194;2024-02-23T00:44:27;96611.06;;;28.04;31.66
14902;BME280;7542;49.078;9.194;2024-02-23T00:45:29;96617.56;;;28.03;31.91
14902;BME280;7542;49.078;9.194;2024-02-23T00:46:32;96606.00;;;28.02;31.94
14902;BME280;7542;49.078;9.194;2024-02-23T00:47:35;96616.44;;;28.04;31.82
14902;BME280;7542;49.078;9.194;2024-02-23T00:48:38;96622.63;;;28.05;32.01
14902;BME280;7542;49.078;9.194;2024-02-23T00:49:40;96623.72;;;28.04;31.86
14902;BME280;7542;49.078;9.194;2024-02-23T00:50:43;96626.09;;;28.05;31.68
14902;BME280;7542;49.078;9.194;2024-02-23T00:51:46;96624.53;;;28.04;31.61
14902;BME280;7542;49.078;9.194;2024-02-23T00:52:48;96626.44;;;28.04;31.56
14902;BME280;7542;49.078;9.194;2024-02-23T00:53:51;96635.28;;;28.04;31.84
14902;BME280;7542;49.078;9.194;2024-02-23T00:54:54;96629.13;;;28.04;31.97
14902;BME280;7542;49.078;9.194;2024-02-23T00:55:56;96629.91;;;28.04;31.83
14902;BME280;7542;49.078;9.194;2024-02-23T00:56:59;96625.63;;;28.03;31.69
14902;BME280;7542;49.078;9.194;2024-02-23T00:58:02;96617.56;;;28.03;31.63
14902;BME280;7542;49.078;9.194;2024-02-23T00:59:05;96625.63;;;28.03;31.74
14902;BME280;7542;49.078;9.194;2024-02-23T01:00:08;96625.63;;;28.03;31.67
14902;BME280;7542;49.078;9.194;2024-02-23T01:01:13;96619.47;;;28.02;31.52
14902;BME280;7542;49.078;9.194;2024-02-23T01:02:16;96626.44;;;28.04;31.86
14902;BME280;7542;49.078;9.194;2024-02-23T01:03:18;96634.84;;;28.02;31.63
14902;BME280;7542;49.078;9.194;2024-02-23T01:04:21;96628.66;;;28.01;31.87
14902;BME280;7542;49.078;9.194;2024-02-23T01:05:23;96635.63;;;28.02;31.84
14902;BME280;7542;49.078;9.194;2024-02-23T01:06:26;96643.38;;;28.04;31.82
14902;BME280;7542;49.078;9.194;2024-02-23T01:07:31;96649.09;;;28.02;31.66
14902;BME280;7542;49.078;9.194;2024-02-23T01:08:35;96649.09;;;28.02;31.62
14902;BME280;7542;49.078;9.194;2024-02-23T01:09:38;96656.06;;;28.04;31.70
14902;BME280;7542;49.078;9.194;2024-02-23T01:10:40;96653.72;;;28.02;31.68
14902;BME280;7542;49.078;9.194;2024-02-23T01:11:43;96674.94;;;28.04;31.88
14902;BME280;7542;49.078;9.194;2024-02-23T01:12:46;96664.47;;;28.02;31.87
14902;BME280;7542;49.078;9.194;2024-02-23T01:13:49;96659.53;;;28.04;31.82
14902;BME280;7542;49.078;9.194;2024-02-23T01:14:51;96647.97;;;28.04;31.69
14902;BME280;7542;49.078;9.194;2024-02-23T01:15:54;96656.06;;;28.04;31.70
14902;BME280;7542;49.078;9.194;2024-02-23T01:16:56;96648.78;;;28.04;31.76
14902;BME280;7542;49.078;9.194;2024-02-23T01:17:59;96648.78;;;28.04;31.80
14902;BME280;7542;49.078;9.194;2024-02-23T01:19:01;96647.84;;;28.00;31.86
14902;BME280;7542;49.078;9.194;2024-02-23T01:20:05;96659.09;;;28.02;31.78
14902;BME280;7542;49.078;9.194;2024-02-23T01:21:08;96643.72;;;28.02;31.85
14902;BME280;7542;49.078;9.194;2024-02-23T01:22:11;96646.41;;;28.02;31.70
14902;BME280;7542;49.078;9.194;2024-02-23T01:23:13;96637.88;;;28.00;31.70
14902;BME280;7542;49.078;9.194;2024-02-23T01:24:16;96626.28;;;28.00;31.62
14902;BME280;7542;49.078;9.194;2024-02-23T01:25:18;96633.56;;;27.99;31.63
14902;BME280;7542;49.078;9.194;2024-02-23T01:26:21;96642.44;;;28.00;31.83
14902;BME280;7542;49.078;9.194;2024-02-23T01:27:24;96637.88;;;28.00;31.67
14902;BME280;7542;49.078;9.194;2024-02-23T01:28:26;96632.50;;;28.00;31.61
14902;BME280;7542;49.078;9.194;2024-02-23T01:29:29;96625.03;;;27.97;31.63
14902;BME280;7542;49.078;9.194;2024-02-23T01:30:31;96635.81;;;27.97;31.61
14902;BME280;7542;49.078;9.194;2024-02-23T01:31:34;96625.50;;;27.99;31.63
14902;BME280;7542;49.078;9.194;2024-02-23T01:32:36;96640.88;;;27.99;31.88
14902;BME280;7542;49.078;9.194;2024-02-23T01:33:40;96637.88;;;28.00;31.84
14902;BME280;7542;49.078;9.194;2024-02-23T01:34:43;96639.44;;;28.01;31.78
14902;BME280;7542;49.078;9.194;2024-02-23T01:35:46;96649.09;;;28.02;31.78
14902;BME280;7542;49.078;9.194;2024-02-23T01:36:50;96649.75;;;27.99;31.59
14902;BME280;7542;49.078;9.194;2024-02-23T01:37:53;96652.44;;;27.99;31.73
14902;BME280;7542;49.078;9.194;2024-02-23T01:38:56;96649.75;;;27.99;31.78
14902;BME280;7542;49.078;9.194;2024-02-23T01:39:59;96633.56;;;27.99;31.77
14902;BME280;7542;49.078;9.194;2024-02-23T01:41:02;96643.25;;;28.00;31.61
14902;BME280;7542;49.078;9.194;2024-02-23T01:42:05;96665.13;;;27.99;31.64
14902;BME280;7542;49.078;9.194;2024-02-23T01:43:07;96661.63;;;27.98;31.58
14902;BME280;7542;49.078;9.194;2024-02-23T01:44:10;96654.34;;;27.99;31.52
14902;BME280;7542;49.078;9.194;2024-02-23T01:45:13;96663.22;;;27.99;31.57
14902;BME280;7542;49.078;9.194;2024-02-23T01:46:16;96652.44;;;27.99;31.79
14902;BME280;7542;49.078;9.194;2024-02-23T01:47:21;96661.97;;;27.97;31.79
14902;BME280;7542;49.078;9.194;2024-02-23T01:48:24;96660.84;;;27.98;31.60
14902;BME280;7542;49.078;9.194;2024-02-23T01:49:27;96670.06;;;27.97;31.58
14902;BME280;7542;49.078;9.194;2024-02-23T01:50:36;96666.56;;;27.96;31.79
14902;BME280;7542;49.078;9.194;2024-02-23T01:51:39;96667.34;;;27.97;31.75
14902;BME280;7542;49.078;9.194;2024-02-23T01:52:42;96672.75;;;27.97;31.80
14902;BME280;7542;49.078;9.194;2024-02-23T01:53:45;96681.94;;;27.96;31.71
14902;BME280;7542;49.078;9.194;2024-02-23T01:54:48;96675.44;;;27.97;31.63
14902;BME280;7542;49.078;9.194;2024-02-23T01:55:51;96678.47;;;27.95;31.52
14902;BME280;7542;49.078;9.194;2024-02-23T01:56:55;96677.34;;;27.96;31.80
14902;BME280;7542;49.078;9.194;2024-02-23T01:57:59;96681.94;;;27.96;31.68
14902;BME280;7542;49.078;9.194;2024-02-23T01:59:03;96685.44;;;27.96;31.83
14902;BME280;7542;49.078;9.194;2024-02-23T02:00:07;96682.75;;;27.96;31.69
14902;BME280;7542;49.078;9.194;2024-02-23T02:01:11;96678.91;;;27.97;31.80
14902;BME280;7542;49.078;9.194;2024-02-23T02:02:13;96677.69;;;27.95;31.64
14902;BME280;7542;49.078;9.194;2024-02-23T02:03:16;96687.66;;;27.94;31.57
14902;BME280;7542;49.078;9.194;2024-02-23T02:04:19;96688.13;;;27.96;31.77
14902;BME280;7542;49.078;9.194;2024-02-23T02:05:21;96680.03;;;27.96;31.61
14902;BME280;7542;49.078;9.194;2024-02-23T02:06:24;96688.47;;;27.95;31.56
14902;BME280;7542;49.078;9.194;2024-02-23T02:07:27;96687.66;;;27.94;31.60
14902;BME280;7542;49.078;9.194;2024-02-23T02:08:31;96676.91;;;27.94;31.73
14902;BME280;7542;49.078;9.194;2024-02-23T02:09:35;96684.19;;;27.94;31.60
14902;BME280;7542;49.078;9.194;2024-02-23T02:10:37;96682.28;;;27.94;31.58
14902;BME280;7542;49.078;9.194;2024-02-23T02:11:49;96681.94;;;27.96;31.75
14902;BME280;7542;49.078;9.194;2024-02-23T02:12:52;96680.72;;;27.93;31.73
14902;BME280;7542;49.078;9.194;2024-02-23T02:13:55;96684.97;;;27.94;31.55
14902;BME280;7542;49.078;9.194;2024-02-23T02:14:58;96690.38;;;27.94;31.72
14902;BME280;7542;49.078;9.194;2024-02-23T02:16:02;96694.19;;;27.93;31.73
14902;BME280;7542;49.078;9.194;2024-02-23T02:17:05;96706.84;;;27.93;31.58
14902;BME280;7542;49.078;9.194;2024-02-23T02:18:09;96696.09;;;27.93;31.79
14902;BME280;7542;49.078;9.194;2024-02-23T02:19:14;96699.91;;;27.92;31.73
14902;BME280;7542;49.078;9.194;2024-02-23T02:20:18;96704.94;;;27.93;31.67
14902;BME280;7542;49.078;9.194;2024-02-23T02:21:25;96701.81;;;27.91;31.67
14902;BME280;7542;49.078;9.194;2024-02-23T02:22:28;96707.19;;;27.91;31.81
14902;BME280;7542;49.078;9.194;2024-02-23T02:23:30;96713.38;;;27.92;31.61
14902;BME280;7542;49.078;9.194;2024-02-23T02:24:34;96713.38;;;27.92;31.64
14902;BME280;7542;49.078;9.194;2024-02-23T02:25:37;96702.59;;;27.92;31.59
14902;BME280;7542;49.078;9.194;2024-02-23T02:26:39;96701.00;;;27.91;31.59
14902;BME280;7542;49.078;9.194;2024-02-23T02:27:42;96716.06;;;27.92;31.61
14902;BME280;7542;49.078;9.194;2024-02-23T02:28:47;96710.66;;;27.92;31.77
14902;BME280;7542;49.078;9.194;2024-02-23T02:29:53;96708.75;;;27.92;31.67
14902;BME280;7542;49.078;9.194;2024-02-23T02:30:55;96712.56;;;27.91;31.85
14902;BME280;7542;49.078;9.194;2024-02-23T02:31:58;96719.53;;;27.92;31.72
14902;BME280;7542;49.078;9.194;2024-02-23T02:33:01;96721.78;;;27.90;31.87
14902;BME280;7542;49.078;9.194;2024-02-23T02:34:04;96716.38;;;27.90;31.78
14902;BME280;7542;49.078;9.194;2024-02-23T02:35:07;96718.75;;;27.92;31.79
14902;BME280;7542;49.078;9.194;2024-02-23T02:36:11;96714.47;;;27.91;31.73
14902;BME280;7542;49.078;9.194;2024-02-23T02:37:13;96712.56;;;27.91;31.78
14902;BME280;7542;49.078;9.194;2024-02-23T02:38:16;96714.94;;;27.93;31.56
14902;BME280;7542;49.078;9.194;2024-02-23T02:39:19;96732.22;;;27.92;31.77
14902;BME280;7542;49.078;9.194;2024-02-23T02:40:21;96717.19;;;27.91;31.74
14902;BME280;7542;49.078;9.194;2024-02-23T02:41:28;96719.22;;;27.94;31.56
14902;BME280;7542;49.078;9.194;2024-02-23T02:42:32;96726.50;;;27.93;31.66
14902;BME280;7542;49.078;9.194;2024-02-23T02:43:35;96733.00;;;27.92;31.68
14902;BME280;7542;49.078;9.194;2024-02-23T02:44:38;96730.66;;;27.91;31.56
14902;BME280;7542;49.078;9.194;2024-02-23T02:45:41;96729.84;;;27.90;31.74
14902;BME280;7542;49.078;9.194;2024-02-23T02:46:43;96723.34;;;27.91;31.90
14902;BME280;7542;49.078;9.194;2024-02-23T02:47:46;96711.78;;;27.91;31.62
14902;BME280;7542;49.078;9.194;2024-02-23T02:48:48;96712.91;;;27.90;31.79
14902;BME280;7542;49.078;9.194;2024-02-23T02:49:51;96719.09;;;27.90;31.78
14902;BME280;7542;49.078;9.194;2024-02-23T02:50:53;96717.47;;;27.89;31.50
14902;BME280;7542;49.078;9.194;2024-02-23T02:51:56;96712.09;;;27.89;31.55
14902;BME280;7542;49.078;9.194;2024-02-23T02:52:59;96716.38;;;27.90;31.56
14902;BME280;7542;49.078;9.194;2024-02-23T02:54:04;96719.88;;;27.91;31.78
14902;BME280;7542;49.078;9.194;2024-02-23T02:55:07;96709.41;;;27.89;31.76
14902;BME280;7542;49.078;9.194;2024-02-23T02:56:10;96722.88;;;27.89;31.82
14902;BME280;7542;49.078;9.194;2024-02-23T02:57:14;96714.78;;;27.89;31.70
14902;BME280;7542;49.078;9.194;2024-02-23T02:58:17;96704.00;;;27.89;31.50
14902;BME280;7542;49.078;9.194;2024-02-23T02:59:20;96708.63;;;27.89;31.59
14902;BME280;7542;49.078;9.194;2024-02-23T03:00:23;96708.63;;;27.89;31.58
14902;BME280;7542;49.078;9.194;2024-02-23T03:01:26;96699.75;;;27.88;31.50
14902;BME280;7542;49.078;9.194;2024-02-23T03:02:28;96705.13;;;27.88;31.54
14902;BME280;7542;49.078;9.194;2024-02-23T03:03:31;96709.41;;;27.89;31.73
14902;BME280;7542;49.078;9.194;2024-02-23T03:04:34;96721.00;;;27.90;31.56
14902;BME280;7542;49.078;9.194;2024-02-23T03:05:37;96727.94;;;27.91;31.49
14902;BME280;7542;49.078;9.194;2024-02-23T03:06:40;96716.38;;;27.90;31.48
14902;BME280;7542;49.078;9.194;2024-02-23T03:07:42;96729.06;;;27.90;31.57
14902;BME280;7542;49.078;9.194;2024-02-23T03:08:45;96721.00;;;27.90;31.81
14902;BME280;7542;49.078;9.194;2024-02-23T03:09:47;96727.47;;;27.89;31.73
14902;BME280;7542;49.078;9.194;2024-02-23T03:10:51;96727.16;;;27.90;31.53
14902;BME280;7542;49.078;9.194;2024-02-23T03:11:54;96732.56;;;27.90;31.69
14902;BME280;7542;49.078;9.194;2024-02-23T03:12:57;96730.31;;;27.92;31.54
14902;BME280;7542;49.078;9.194;2024-02-23T03:13:59;96735.69;;;27.92;31.54
14902;BME280;7542;49.078;9.194;2024-02-23T03:15:04;96724.13;;;27.92;31.76
14902;BME280;7542;49.078;9.194;2024-02-23T03:16:15;96721.91;;;27.94;31.51
14902;BME280;7542;49.078;9.194;2024-02-23T03:17:18;96732.69;;;27.94;31.54
14902;BME280;7542;49.078;9.194;2024-02-23T03:18:21;96731.44;;;27.91;31.73
14902;BME280;7542;49.078;9.194;2024-02-23T03:19:23;96735.69;;;27.92;31.52
14902;BME280;7542;49.078;9.194;2024-02-23T03:20:26;96735.69;;;27.92;31.36
14902;BME280;7542;49.078;9.194;2024-02-23T03:21:28;96724.94;;;27.92;31.53
14902;BME280;7542;49.078;9.194;2024-02-23T03:22:31;96729.53;;;27.92;31.46
14902;BME280;7542;49.078;9.194;2024-02-23T03:23:33;96719.53;;;27.92;31.73
14902;BME280;7542;49.078;9.194;2024-02-23T03:24:36;96713.38;;;27.92;31.72
14902;BME280;7542;49.078;9.194;2024-02-23T03:25:38;96720.31;;;27.93;31.52
14902;BME280;7542;49.078;9.194;2024-02-23T03:26:41;96728.75;;;27.91;31.51
14902;BME280;7542;49.078;9.194;2024-02-23T03:27:43;96731.44;;;27.91;31.45
14902;BME280;7542;49.078;9.194;2024-02-23T03:28:46;96735.69;;;27.92;31.54
14902;BME280;7542;49.078;9.194;2024-02-23T03:29:51;96717.19;;;27.91;31.67
14902;BME280;7542;49.078;9.194;2024-02-23T03:30:53;96719.53;;;27.92;31.48
14902;BME280;7542;49.078;9.194;2024-02-23T03:31:56;96713.03;;;27.93;31.52
14902;BME280;7542;49.078;9.194;2024-02-23T03:32:59;96715.28;;;27.91;31.48
14902;BME280;7542;49.078;9.194;2024-02-23T03:34:03;96717.63;;;27.93;31.67
14902;BME280;7542;49.078;9.194;2024-02-23T03:35:06;96710.66;;;27.92;31.46
14902;BME280;7542;49.078;9.194;2024-02-23T03:36:10;96713.69;;;27.90;31.53
14902;BME280;7542;49.078;9.194;2024-02-23T03:37:13;96719.53;;;27.92;31.67
14902;BME280;7542;49.078;9.194;2024-02-23T03:38:15;96721.00;;;27.90;31.48
14902;BME280;7542;49.078;9.194;2024-02-23T03:39:18;96726.03;;;27.91;31.49
14902;BME280;7542;49.078;9.194;2024-02-23T03:40:20;96712.09;;;27.89;31.46
14902;BME280;7542;49.078;9.194;2024-02-23T03:41:23;96733.63;;;27.89;31.51
14902;BME280;7542;49.078;9.194;2024-02-23T03:42:26;96723.97;;;27.88;31.67
14902;BME280;7542;49.078;9.194;2024-02-23T03:43:29;96726.69;;;27.88;31.60
14902;BME280;7542;49.078;9.194;2024-02-23T03:44:35;96729.38;;;27.88;31.46
14902;BME280;7542;49.078;9.194;2024-02-23T03:45:38;96720.19;;;27.89;31.49
14902;BME280;7542;49.078;9.194;2024-02-23T03:46:40;96722.06;;;27.89;31.81
14902;BME280;7542;49.078;9.194;2024-02-23T03:47:43;96718.59;;;27.88;31.73
14902;BME280;7542;49.078;9.194;2024-02-23T03:48:45;96710.53;;;27.88;31.54
14902;BME280;7542;49.078;9.194;2024-02-23T03:49:48;96710.53;;;27.88;31.50
14902;BME280;7542;49.078;9.194;2024-02-23T03:50:50;96717.81;;;27.88;31.58
14902;BME280;7542;49.078;9.194;2024-02-23T03:51:53;96709.72;;;27.88;31.48
14902;BME280;7542;49.078;9.194;2024-02-23T03:52:56;96719.38;;;27.89;31.65
14902;BME280;7542;49.078;9.194;2024-02-23T03:53:58;96725.56;;;27.89;31.46
14902;BME280;7542;49.078;9.194;2024-02-23T03:55:01;96730.50;;;27.87;31.60
14902;BME280;7542;49.078;9.194;2024-02-23T03:56:03;96746.66;;;27.87;31.50
14902;BME280;7542;49.078;9.194;2024-02-23T03:57:06;96742.84;;;27.88;31.45
14902;BME280;7542;49.078;9.194;2024-02-23T03:58:08;96740.81;;;27.85;31.68
14902;BME280;7542;49.078;9.194;2024-02-23T03:59:11;96737.78;;;27.87;31.58
14902;BME280;7542;49.078;9.194;2024-02-23T04:00:14;96734.75;;;27.88;31.65
14902;BME280;7542;49.078;9.194;2024-02-23T04:01:16;96734.75;;;27.88;31.52
14902;BME280;7542;49.078;9.194;2024-02-23T04:02:19;96745.53;;;27.88;31.41
14902;BME280;7542;49.078;9.194;2024-02-23T04:03:21;96740.94;;;27.89;31.53
14902;BME280;7542;49.078;9.194;2024-02-23T04:04:24;96754.72;;;27.87;31.45
14902;BME280;7542;49.078;9.194;2024-02-23T04:05:26;96755.84;;;27.86;31.61
14902;BME280;7542;49.078;9.194;2024-02-23T04:06:28;96752.03;;;27.87;31.50
14902;BME280;7542;49.078;9.194;2024-02-23T04:07:31;96763.16;;;27.86;31.60
14902;BME280;7542;49.078;9.194;2024-02-23T04:08:34;96773.91;;;27.86;31.55
14902;BME280;7542;49.078;9.194;2024-02-23T04:09:36;96767.75;;;27.85;31.51
14902;BME280;7542;49.078;9.194;2024-02-23T04:10:39;96764.25;;;27.85;31.44
14902;BME280;7542;49.078;9.194;2024-02-23T04:11:42;96762.69;;;27.84;31.70
14902;BME280;7542;49.078;9.194;2024-02-23T04:12:46;96776.16;;;27.84;31.45
14902;BME280;7542;49.078;9.194;2024-02-23T04:13:49;96766.16;;;27.84;31.40
14902;BME280;7542;49.078;9.194;2024-02-23T04:14:54;96763.47;;;27.84;31.60
14902;BME280;7542;49.078;9.194;2024-02-23T04:15:56;96756.84;;;27.82;31.35
14902;BME280;7542;49.078;9.194;2024-02-23T04:16:59;96758.41;;;27.83;31.50
14902;BME280;7542;49.078;9.194;2024-02-23T04:18:03;96742.25;;;27.83;31.64
14902;BME280;7542;49.078;9.194;2024-02-23T04:19:05;96751.13;;;27.83;31.60
14902;BME280;7542;49.078;9.194;2024-02-23T04:20:10;96749.88;;;27.81;31.67
14902;BME280;7542;49.078;9.194;2024-02-23T04:21:12;96751.78;;;27.80;31.49
14902;BME280;7542;49.078;9.194;2024-02-23T04:22:17;96749.41;;;27.79;31.62
14902;BME280;7542;49.078;9.194;2024-02-23T04:23:20;96754.78;;;27.79;31.73
14902;BME280;7542;49.078;9.194;2024-02-23T04:24:23;96748.31;;;27.80;31.63
14902;BME280;7542;49.078;9.194;2024-02-23T04:25:28;96749.72;;;27.77;31.64
14902;BME280;7542;49.078;9.194;2024-02-23T04:26:30;96759.72;;;27.77;31.56
14902;BME280;7542;49.078;9.194;2024-02-23T04:27:33;96755.91;;;27.78;31.43
14902;BME280;7542;49.078;9.194;2024-02-23T04:28:39;96754.00;;;27.78;31.65
14902;BME280;7542;49.078;9.194;2024-02-23T04:29:41;96748.94;;;27.77;31.54
14902;BME280;7542;49.078;9.194;2024-02-23T04:30:44;96744.34;;;27.77;31.65
14902;BME280;7542;49.078;9.194;2024-02-23T04:31:46;96750.06;;;27.76;31.59
14902;BME280;7542;49.078;9.194;2024-02-23T04:32:49;96754.31;;;27.77;31.67
14902;BME280;7542;49.078;9.194;2024-02-23T04:33:51;96755.78;;;27.74;31.60
14902;BME280;7542;49.078;9.194;2024-02-23T04:34:54;96746.13;;;27.73;31.41
14902;BME280;7542;49.078;9.194;2024-02-23T04:35:57;96751.97;;;27.75;31.67
14902;BME280;7542;49.078;9.194;2024-02-23T04:37:00;96753.06;;;27.74;31.64
14902;BME280;7542;49.078;9.194;2024-02-23T04:38:02;96748.81;;;27.73;31.68
14902;BME280;7542;49.078;9.194;2024-02-23T04:39:05;96748.81;;;27.73;31.63
14902;BME280;7542;49.078;9.194;2024-02-23T04:40:08;96749.94;;;27.72;31.74
14902;BME280;7542;49.078;9.194;2024-02-23T04:41:10;96739.16;;;27.72;31.64
14902;BME280;7542;49.078;9.194;2024-02-23T04:42:13;96748.03;;;27.72;31.58
14902;BME280;7542;49.078;9.194;2024-02-23T04:43:16;96741.06;;;27.71;31.46
14902;BME280;7542;49.078;9.194;2024-02-23T04:44:18;96740.72;;;27.73;31.48
14902;BME280;7542;49.078;9.194;2024-02-23T04:45:21;96746.91;;;27.73;31.59
14902;BME280;7542;49.078;9.194;2024-02-23T04:46:23;96742.63;;;27.72;31.54
14902;BME280;7542;49.078;9.194;2024-02-23T04:47:26;96743.41;;;27.73;31.46
14902;BME280;7542;49.078;9.194;2024-02-23T04:48:28;96748.03;;;27.72;31.45
14902;BME280;7542;49.078;9.194;2024-02-23T04:49:33;96748.81;;;27.73;31.63
14902;BME280;7542;49.078;9.194;2024-02-23T04:50:36;96733.44;;;27.73;31.57
14902;BME280;7542;49.078;9.194;2024-02-23T04:51:38;96739.16;;;27.72;31.52
14902;BME280;7542;49.078;9.194;2024-02-23T04:52:41;96744.53;;;27.72;31.45
14902;BME280;7542;49.078;9.194;2024-02-23T04:53:43;96749.94;;;27.72;31.48
14902;BME280;7542;49.078;9.194;2024-02-23T04:54:46;96754.84;;;27.70;31.47
14902;BME280;7542;49.078;9.194;2024-02-23T04:55:48;96753.72;;;27.71;31.42
14902;BME280;7542;49.078;9.194;2024-02-23T04:56:51;96742.50;;;27.69;31.40
14902;BME280;7542;49.078;9.194;2024-02-23T04:57:53;96752.50;;;27.68;31.39
14902;BME280;7542;49.078;9.194;2024-02-23T04:58:56;96745.81;;;27.66;31.36
14902;BME280;7542;49.078;9.194;2024-02-23T04:59:59;96733.94;;;27.67;31.55
14902;BME280;7542;49.078;9.194;2024-02-23T05:01:02;96745.81;;;27.66;31.50
14902;BME280;7542;49.078;9.194;2024-02-23T05:02:05;96748.53;;;27.66;31.40
14902;BME280;7542;49.078;9.194;2024-02-23T05:03:08;96744.88;;;27.62;31.57
14902;BME280;7542;49.078;9.194;2024-02-23T05:04:14;96746.13;;;27.64;31.35
14902;BME280;7542;49.078;9.194;2024-02-23T05:05:16;96747.56;;;27.62;31.53
14902;BME280;7542;49.078;9.194;2024-02-23T05:06:18;96742.97;;;27.62;31.51
14902;BME280;7542;49.078;9.194;2024-02-23T05:07:21;96740.94;;;27.59;31.53
14902;BME280;7542;49.078;9.194;2024-02-23T05:08:24;96745.53;;;27.59;31.28
14902;BME280;7542;49.078;9.194;2024-02-23T05:09:26;96740.47;;;27.57;31.63
14902;BME280;7542;49.078;9.194;2024-02-23T05:10:29;96743.47;;;27.56;31.46
14902;BME280;7542;49.078;9.194;2024-02-23T05:11:31;96735.41;;;27.56;31.46
14902;BME280;7542;49.078;9.194;2024-02-23T05:12:34;96737.28;;;27.55;31.64
14902;BME280;7542;49.078;9.194;2024-02-23T05:13:37;96733.81;;;27.55;31.56
14902;BME280;7542;49.078;9.194;2024-02-23T05:14:41;96727.66;;;27.54;31.42
14902;BME280;7542;49.078;9.194;2024-02-23T05:15:44;96734.94;;;27.54;31.43
14902;BME280;7542;49.078;9.194;2024-02-23T05:16:46;96731.47;;;27.53;31.43
14902;BME280;7542;49.078;9.194;2024-02-23T05:17:49;96739.19;;;27.55;31.65
14902;BME280;7542;49.078;9.194;2024-02-23T05:18:51;96735.25;;;27.52;31.52
14902;BME280;7542;49.078;9.194;2024-02-23T05:19:54;96737.16;;;27.52;31.40
14902;BME280;7542;49.078;9.194;2024-02-23T05:20:56;96735.59;;;27.51;31.51
14902;BME280;7542;49.078;9.194;2024-02-23T05:21:59;96729.41;;;27.50;31.43
14902;BME280;7542;49.078;9.194;2024-02-23T05:23:02;96733.22;;;27.49;31.54
14902;BME280;7542;49.078;9.194;2024-02-23T05:24:04;96735.13;;;27.49;31.53
14902;BME280;7542;49.078;9.194;2024-02-23T05:25:08;96731.31;;;27.50;31.49
14902;BME280;7542;49.078;9.194;2024-02-23T05:26:11;96730.53;;;27.49;31.40
14902;BME280;7542;49.078;9.194;2024-02-23T05:27:13;96743.22;;;27.49;31.65
14902;BME280;7542;49.078;9.194;2024-02-23T05:28:18;96732.78;;;27.47;31.63
14902;BME280;7542;49.078;9.194;2024-02-23T05:29:20;96738.94;;;27.48;31.68
14902;BME280;7542;49.078;9.194;2024-02-23T05:30:24;96744.31;;;27.48;31.53
14902;BME280;7542;49.078;9.194;2024-02-23T05:31:50;96744.47;;;27.51;31.52
14902;BME280;7542;49.078;9.194;2024-02-23T05:32:53;96740.06;;;27.47;31.44
14902;BME280;7542;49.078;9.194;2024-02-23T05:33:56;96740.06;;;27.47;31.57
14902;BME280;7542;49.078;9.194;2024-02-23T05:34:58;96741.16;;;27.45;31.48
14902;BME280;7542;49.078;9.194;2024-02-23T05:36:02;96747.66;;;27.44;31.62
14902;BME280;7542;49.078;9.194;2024-02-23T05:37:05;96739.09;;;27.42;31.59
14902;BME280;7542;49.078;9.194;2024-02-23T05:38:08;96752.25;;;27.44;31.57